Main page
METAR-TAF:

METAR-TAF

Airports :

Bologna, Italy

Bologna Guglielmo Marconi Airport

latitude: 44-32N, longitude: 011-18E, elevation: 36 m

Current weather observation

The report was made 39 minutes ago, at 01:20 UTC
Wind 3 kt from the West/Southwest, varying between South and West
Temperature 12°C
Humidity 94%
Pressure 1020 hPa
Visibility 10 km or more
Broken clouds at a height of 3000 ft

METAR: LIPE 260120Z 24003KT 190V270 9999 BKN030 12/11 Q1020

Time: 03:59 (01:59 UTC)

Forecast

The report was made 2 hours and 59 minutes ago, at 23:00 UTC
Forecast valid from 26 at 00 UTC to 26 at 24 UTC
Wind 6 kt from variable directions
Visibility 10 km or more
Scattered clouds at a height of 3000 ft
Becoming
from 26 at 08 UTC to 26 at 10 UTC
Wind 10 kt from the North/Northeast

TAF: LIPE 252300Z 2600/2624 VRB06KT 9999 SCT030 BECMG 2608/2610 03010KT

Weather observations and forecasts of more than 4000 airports (METAR and TAF reports).

The available stations are represented by yellow and red dots on the map.

Hover mouse over dot to see the name of the station.

Then click to see weather observations and forecasts.

To change the map : click on the green buttons with a black cross to zoom in, on the green button with a dash to zoom out, or on the green arrows for adjacent maps.


METAR-TAF: